Time;durP1;ratioP1;P1;durP2;ratioP2;P2;SDS_P1;SDS_P2;PMS_P1;PMS_P2;Temp;Humidity;BMP_temperature;BMP_pressure;BME280_temperature;BME280_humidity;BME280_pressure;Samples;Min_cycle;Max_cycle;Signal;HPM_P1;HPM_P2
2023/05/13 00:01:14;;;;;;;6.90;2.83;;;12.90;1.00;;;;;;4971450;28;20419;-55
2023/05/13 00:03:40;;;;;;;8.17;2.90;;;12.90;1.00;;;;;;4972862;28;20399;-55
2023/05/13 00:06:06;;;;;;;10.40;2.80;;;12.80;1.00;;;;;;4971116;28;20400;-56
2023/05/13 00:08:31;;;;;;;8.27;2.65;;;12.70;1.00;;;;;;4972004;28;20416;-56
2023/05/13 00:10:57;;;;;;;7.57;3.10;;;12.60;1.00;;;;;;4971048;28;20968;-56
2023/05/13 00:13:22;;;;;;;8.03;3.17;;;12.50;1.00;;;;;;4972102;28;20403;-55
2023/05/13 00:15:48;;;;;;;8.07;3.20;;;12.50;1.00;;;;;;4954770;28;20901;-55
2023/05/13 00:18:14;;;;;;;7.67;3.00;;;12.40;43.20;;;;;;4971226;28;20463;-55
2023/05/13 00:20:39;;;;;;;7.65;3.60;;;12.40;57.50;;;;;;4971310;28;20892;-55
2023/05/13 00:23:06;;;;;;;8.25;3.40;;;12.30;99.90;;;;;;4970534;28;20443;-55
2023/05/13 00:25:32;;;;;;;10.20;4.07;;;12.30;79.80;;;;;;4971864;28;20400;-55
2023/05/13 00:27:58;;;;;;;7.70;3.20;;;12.30;99.90;;;;;;4970597;28;20767;-56
2023/05/13 00:30:23;;;;;;;10.20;4.18;;;12.30;99.90;;;;;;4970636;28;20423;-55
2023/05/13 00:32:49;;;;;;;7.80;3.20;;;12.20;99.90;;;;;;4971740;28;20396;-56
2023/05/13 00:35:15;;;;;;;7.80;2.90;;;12.20;99.90;;;;;;4970753;28;20388;-55
2023/05/13 00:37:40;;;;;;;7.90;3.50;;;12.20;99.90;;;;;;4971398;28;20413;-55
2023/05/13 00:40:18;;;;;;;8.20;3.53;;;12.10;99.90;;;;;;4967879;28;20473;-55
2023/05/13 00:42:44;;;;;;;11.57;3.50;;;12.00;99.90;;;;;;4971277;28;20403;-55
2023/05/13 00:45:10;;;;;;;9.25;3.90;;;12.00;99.90;;;;;;4970734;28;20487;-55
2023/05/13 00:47:36;;;;;;;7.57;3.30;;;11.80;99.90;;;;;;4971315;28;20897;-55
2023/05/13 00:50:02;;;;;;;8.02;3.25;;;11.70;99.90;;;;;;4970594;28;20902;-55
2023/05/13 00:52:28;;;;;;;7.18;3.33;;;11.60;99.90;;;;;;4971543;28;20401;-55
2023/05/13 00:54:53;;;;;;;8.50;3.40;;;11.50;99.90;;;;;;4970460;28;20896;-56
2023/05/13 00:57:20;;;;;;;7.85;3.20;;;11.50;99.90;;;;;;4970874;28;20495;-55
2023/05/13 00:59:45;;;;;;;8.38;3.13;;;11.40;99.90;;;;;;4970973;28;20408;-55
2023/05/13 01:02:29;;;;;;;7.27;3.30;;;11.40;1.00;;;;;;4970685;28;20466;-55
2023/05/13 01:05:07;;;;;;;8.82;3.40;;;11.40;1.00;;;;;;4968675;28;20516;-55
2023/05/13 01:08:08;;;;;;;10.00;3.72;;;11.40;1.00;;;;;;4953298;28;20928;-55
2023/05/13 01:10:50;;;;;;;7.60;3.45;;;11.40;1.00;;;;;;4967482;28;20919;-55
2023/05/13 01:13:24;;;;;;;8.70;2.90;;;11.40;1.00;;;;;;4966389;28;20385;-55
2023/05/13 01:16:02;;;;;;;7.43;3.10;;;11.40;1.00;;;;;;4968469;28;20400;-55
2023/05/13 01:18:43;;;;;;;8.20;3.33;;;11.30;1.00;;;;;;4968413;28;20466;-55
2023/05/13 01:21:11;;;;;;;6.82;2.83;;;11.30;1.00;;;;;;4967505;28;20809;-55
2023/05/13 01:23:37;;;;;;;8.55;3.30;;;11.30;1.00;;;;;;4970588;28;20444;-55
2023/05/13 01:26:02;;;;;;;6.82;2.80;;;11.20;1.00;;;;;;4969822;28;20400;-55
2023/05/13 01:28:28;;;;;;;6.80;3.03;;;11.20;1.00;;;;;;4970477;28;20826;-55
2023/05/13 01:30:55;;;;;;;7.85;3.58;;;11.10;1.00;;;;;;4970777;28;20495;-55
2023/05/13 01:33:23;;;;;;;7.78;3.03;;;11.10;1.00;;;;;;4970390;28;20412;-55
2023/05/13 01:35:50;;;;;;;7.63;3.25;;;11.10;1.00;;;;;;4967974;28;20392;-55
2023/05/13 01:38:18;;;;;;;8.57;3.25;;;11.10;1.00;;;;;;4969543;28;20396;-55
2023/05/13 01:40:45;;;;;;;6.57;2.72;;;11.10;1.00;;;;;;4969401;28;20761;-55
2023/05/13 01:43:10;;;;;;;11.02;2.80;;;11.10;1.00;;;;;;4970115;28;20399;-55
2023/05/13 01:45:36;;;;;;;7.90;3.00;;;11.00;1.00;;;;;;4970017;28;20475;-55
2023/05/13 01:48:02;;;;;;;7.13;3.20;;;11.00;1.00;;;;;;4970181;28;20424;-55
2023/05/13 01:50:27;;;;;;;7.37;3.10;;;11.00;1.00;;;;;;4970238;28;20870;-55
2023/05/13 01:52:53;;;;;;;8.37;2.97;;;11.00;1.00;;;;;;4970236;28;20396;-55
2023/05/13 01:55:18;;;;;;;8.48;3.40;;;10.80;1.00;;;;;;4970046;28;20738;-55
2023/05/13 01:57:44;;;;;;;8.33;3.17;;;10.70;1.00;;;;;;4970023;28;20757;-55
2023/05/13 02:00:11;;;;;;;8.70;3.10;;;10.60;1.00;;;;;;4969741;28;20447;-55
2023/05/13 02:02:36;;;;;;;9.60;3.30;;;10.60;1.00;;;;;;4970278;28;20400;-55
2023/05/13 02:05:02;;;;;;;9.13;3.53;;;10.50;1.00;;;;;;4969876;28;20916;-55
2023/05/13 02:07:28;;;;;;;9.40;3.40;;;10.40;1.00;;;;;;4969898;28;20404;-53
2023/05/13 02:09:58;;;;;;;8.87;3.30;;;10.40;1.00;;;;;;4969832;28;20861;-53
2023/05/13 02:12:27;;;;;;;7.53;3.40;;;10.40;1.00;;;;;;4969719;28;20404;-53
2023/05/13 02:14:56;;;;;;;8.65;3.97;;;10.40;1.00;;;;;;4969919;28;20535;-53
2023/05/13 02:17:21;;;;;;;7.18;3.40;;;10.40;1.00;;;;;;4969652;28;20400;-53
2023/05/13 02:19:47;;;;;;;8.50;3.80;;;10.30;1.00;;;;;;4969523;28;20404;-53
2023/05/13 02:22:13;;;;;;;7.23;3.10;;;10.30;1.00;;;;;;4969059;28;20400;-53
2023/05/13 02:24:39;;;;;;;7.40;3.30;;;10.40;1.00;;;;;;4970322;28;20874;-53
2023/05/13 02:27:06;;;;;;;7.77;3.20;;;10.40;1.00;;;;;;4969538;28;20931;-53
2023/05/13 02:29:32;;;;;;;8.18;3.60;;;10.50;1.00;;;;;;4969092;28;20794;-53
2023/05/13 02:31:57;;;;;;;11.48;3.90;;;10.50;1.00;;;;;;4969222;28;20400;-53
2023/05/13 02:34:23;;;;;;;7.90;3.67;;;10.60;1.00;;;;;;4969323;28;20446;-53
2023/05/13 02:36:49;;;;;;;7.40;2.95;;;10.60;1.00;;;;;;4969634;28;20796;-53
2023/05/13 02:39:14;;;;;;;6.90;3.50;;;10.70;1.00;;;;;;4968983;28;20496;-53
2023/05/13 02:41:40;;;;;;;9.60;3.20;;;10.70;1.00;;;;;;4969588;28;20424;-53
2023/05/13 02:44:06;;;;;;;6.97;3.20;;;10.70;1.00;;;;;;4951312;28;20393;-53
2023/05/13 02:46:31;;;;;;;7.65;3.40;;;10.80;1.00;;;;;;4969232;28;20396;-53
2023/05/13 02:48:58;;;;;;;8.27;3.70;;;10.70;1.00;;;;;;4969225;28;20427;-53
2023/05/13 02:51:24;;;;;;;11.18;3.65;;;10.70;1.00;;;;;;4970037;28;20447;-53
2023/05/13 02:53:50;;;;;;;8.70;3.60;;;10.70;1.00;;;;;;4973437;28;20858;-53
2023/05/13 02:56:16;;;;;;;8.97;3.50;;;10.60;1.00;;;;;;4972973;28;20404;-53
2023/05/13 02:58:41;;;;;;;7.53;3.30;;;10.70;1.00;;;;;;4972747;28;20415;-53
2023/05/13 03:01:07;;;;;;;8.50;4.10;;;10.60;1.00;;;;;;4972146;28;20439;-53
2023/05/13 03:03:33;;;;;;;8.48;3.85;;;10.60;1.00;;;;;;4972719;28;20400;-53
2023/05/13 03:05:58;;;;;;;7.53;3.60;;;10.60;1.00;;;;;;4972272;28;20436;-53
2023/05/13 03:08:24;;;;;;;9.05;3.10;;;10.60;1.00;;;;;;4972601;28;20503;-53
2023/05/13 03:10:50;;;;;;;10.50;3.73;;;10.60;1.00;;;;;;4972594;28;20427;-53
2023/05/13 03:13:16;;;;;;;8.75;3.60;;;10.60;1.00;;;;;;4972703;28;20416;-53
2023/05/13 03:15:41;;;;;;;7.55;3.20;;;10.60;1.00;;;;;;4972679;28;20403;-53
2023/05/13 03:18:07;;;;;;;7.80;3.60;;;10.60;1.00;;;;;;4971945;28;20430;-53
2023/05/13 03:20:32;;;;;;;7.70;3.40;;;10.70;1.00;;;;;;4972951;28;20408;-53
2023/05/13 03:22:58;;;;;;;7.07;3.10;;;10.70;1.00;;;;;;4972047;28;20408;-54
2023/05/13 03:25:26;;;;;;;7.70;3.00;;;10.60;1.00;;;;;;4972118;28;20877;-53
2023/05/13 03:27:53;;;;;;;7.50;3.45;;;10.70;1.00;;;;;;4971965;28;20440;-53
2023/05/13 03:30:19;;;;;;;6.80;3.20;;;10.60;1.00;;;;;;4971488;28;20416;-53
2023/05/13 03:32:45;;;;;;;7.53;3.50;;;10.60;1.00;;;;;;4972647;28;20404;-53
2023/05/13 03:35:10;;;;;;;8.48;3.22;;;10.60;1.00;;;;;;4972461;28;20392;-53
2023/05/13 03:37:36;;;;;;;7.90;3.50;;;10.70;1.00;;;;;;4972062;28;20408;-53
2023/05/13 03:40:02;;;;;;;7.45;3.15;;;10.70;1.00;;;;;;4971622;28;20400;-53
2023/05/13 03:42:29;;;;;;;8.00;3.10;;;10.70;1.00;;;;;;4972018;28;20397;-53
2023/05/13 03:44:55;;;;;;;6.93;2.72;;;10.70;1.00;;;;;;4972624;28;20397;-53
2023/05/13 03:47:22;;;;;;;8.13;3.30;;;10.80;1.00;;;;;;4971552;28;21200;-53
2023/05/13 03:49:47;;;;;;;7.45;3.20;;;10.80;1.00;;;;;;4971916;28;20412;-53
2023/05/13 03:52:13;;;;;;;7.45;3.58;;;10.80;1.00;;;;;;4971301;28;20393;-53
2023/05/13 03:54:39;;;;;;;7.70;3.40;;;10.80;1.00;;;;;;4972315;28;20509;-53
2023/05/13 03:57:06;;;;;;;7.90;2.97;;;10.80;1.00;;;;;;4971417;28;20428;-55
2023/05/13 03:59:34;;;;;;;8.30;3.60;;;10.90;1.00;;;;;;4972104;28;20411;-55
2023/05/13 04:01:59;;;;;;;7.28;3.30;;;10.90;1.00;;;;;;4971381;28;20420;-56
2023/05/13 04:04:25;;;;;;;7.70;3.50;;;10.80;1.00;;;;;;4970488;28;20399;-55
2023/05/13 04:06:51;;;;;;;8.35;4.00;;;10.80;1.00;;;;;;4971815;28;20466;-55
2023/05/13 04:09:17;;;;;;;8.68;4.50;;;10.90;1.00;;;;;;4970914;28;21285;-55
2023/05/13 04:11:42;;;;;;;10.10;4.00;;;10.90;1.00;;;;;;4971606;28;20404;-55
2023/05/13 04:14:08;;;;;;;8.32;3.83;;;11.00;1.00;;;;;;4971173;28;20921;-55
2023/05/13 04:16:34;;;;;;;9.53;3.90;;;11.10;1.00;;;;;;4971667;28;20400;-55
2023/05/13 04:19:00;;;;;;;8.25;3.50;;;11.10;1.00;;;;;;4970967;28;20446;-55
2023/05/13 04:21:25;;;;;;;8.37;3.50;;;11.00;1.00;;;;;;4971289;28;20487;-55
2023/05/13 04:23:51;;;;;;;7.78;3.67;;;11.00;99.90;;;;;;4971493;28;20885;-55
2023/05/13 04:26:16;;;;;;;9.10;3.77;;;11.10;99.90;;;;;;4970878;28;20431;-55
2023/05/13 04:28:42;;;;;;;8.37;3.70;;;11.10;99.90;;;;;;4971238;28;20432;-55
2023/05/13 04:31:07;;;;;;;7.93;3.53;;;11.10;99.90;;;;;;4970683;28;20428;-55
2023/05/13 04:33:33;;;;;;;7.83;3.10;;;11.10;99.90;;;;;;4971879;28;20416;-55
2023/05/13 04:35:59;;;;;;;8.20;3.33;;;11.00;99.90;;;;;;4971385;28;20820;-55
2023/05/13 04:38:24;;;;;;;7.60;3.30;;;10.90;1.00;;;;;;4971151;28;20400;-55
2023/05/13 04:40:51;;;;;;;8.85;3.75;;;10.90;1.00;;;;;;4971250;28;20410;-55
2023/05/13 04:43:16;;;;;;;9.93;3.75;;;10.90;1.00;;;;;;4970139;28;20411;-55
2023/05/13 04:45:42;;;;;;;8.20;3.50;;;10.90;1.00;;;;;;4969358;28;20416;-55
2023/05/13 04:48:08;;;;;;;8.30;4.00;;;10.90;1.00;;;;;;4970093;28;20886;-55
2023/05/13 04:50:33;;;;;;;8.70;3.60;;;11.00;1.00;;;;;;4970663;28;20420;-55
2023/05/13 04:52:59;;;;;;;8.00;3.67;;;11.10;1.00;;;;;;4970399;28;20460;-55
2023/05/13 04:55:24;;;;;;;8.10;3.43;;;11.00;1.00;;;;;;4970357;28;20400;-53
2023/05/13 04:57:50;;;;;;;9.33;3.93;;;11.10;99.90;;;;;;4971021;28;20423;-53
2023/05/13 05:00:16;;;;;;;10.30;3.65;;;11.20;1.00;;;;;;4970691;28;20490;-56
2023/05/13 05:02:41;;;;;;;8.37;3.67;;;11.20;99.90;;;;;;4970691;28;20400;-55
2023/05/13 05:05:07;;;;;;;8.18;3.55;;;11.30;99.90;;;;;;4969690;28;20913;-56
2023/05/13 05:07:33;;;;;;;9.10;3.90;;;11.50;99.90;;;;;;4970526;28;20402;-53
2023/05/13 05:09:58;;;;;;;7.00;2.90;;;11.60;99.90;;;;;;4970369;28;20507;-55
2023/05/13 05:12:24;;;;;;;8.30;3.73;;;11.50;99.90;;;;;;4970267;28;20408;-55
2023/05/13 05:14:50;;;;;;;7.07;3.10;;;11.60;99.90;;;;;;4970721;28;20487;-55
2023/05/13 05:17:15;;;;;;;7.63;3.50;;;11.60;13.10;;;;;;4968857;28;20511;-56
2023/05/13 05:19:41;;;;;;;8.38;3.10;;;11.60;23.00;;;;;;4970832;28;20400;-55
2023/05/13 05:22:06;;;;;;;8.27;3.50;;;11.70;1.00;;;;;;4969929;28;20793;-56
2023/05/13 05:24:32;;;;;;;8.73;4.13;;;11.80;1.00;;;;;;4970436;28;20395;-55
2023/05/13 05:26:58;;;;;;;9.13;4.35;;;11.90;1.00;;;;;;4970535;28;20401;-56
2023/05/13 05:29:24;;;;;;;8.70;3.90;;;12.00;99.90;;;;;;4970757;28;20890;-55
2023/05/13 05:31:50;;;;;;;8.63;3.50;;;11.90;99.90;;;;;;4970462;28;20412;-55
2023/05/13 05:34:15;;;;;;;8.30;3.50;;;11.80;1.00;;;;;;4970209;28;20451;-56
2023/05/13 05:36:41;;;;;;;10.32;3.95;;;11.90;99.90;;;;;;4970976;28;20858;-55
2023/05/13 05:39:06;;;;;;;11.23;3.83;;;11.90;99.90;;;;;;4970155;28;20719;-56
2023/05/13 05:41:32;;;;;;;10.90;4.25;;;11.90;1.00;;;;;;4970290;28;20401;-55
2023/05/13 05:43:58;;;;;;;7.20;3.43;;;12.00;1.00;;;;;;4952921;28;20411;-53
2023/05/13 05:46:24;;;;;;;7.88;3.55;;;12.00;1.00;;;;;;4970050;28;20392;-54
2023/05/13 05:48:49;;;;;;;8.13;3.50;;;12.00;1.00;;;;;;4970808;28;20407;-54
2023/05/13 05:51:15;;;;;;;8.15;3.50;;;12.10;1.00;;;;;;4970066;28;20455;-54
2023/05/13 05:53:41;;;;;;;8.33;3.90;;;12.20;99.90;;;;;;4970420;28;20911;-54
2023/05/13 05:56:07;;;;;;;8.60;3.60;;;12.10;99.90;;;;;;4969609;28;20508;-54
2023/05/13 05:58:32;;;;;;;14.07;4.35;;;12.10;1.00;;;;;;4970330;28;20499;-54
2023/05/13 06:00:59;;;;;;;9.30;3.80;;;12.30;1.00;;;;;;4970461;28;20443;-54
2023/05/13 06:03:25;;;;;;;8.30;3.63;;;12.00;99.90;;;;;;4967718;28;20431;-54
2023/05/13 06:05:52;;;;;;;8.60;3.83;;;12.10;1.00;;;;;;4960688;28;20505;-54
2023/05/13 06:08:17;;;;;;;10.10;3.80;;;12.30;99.90;;;;;;4968007;28;20455;-54
2023/05/13 06:10:43;;;;;;;9.40;4.20;;;12.30;99.90;;;;;;4966801;28;20404;-54
2023/05/13 06:13:09;;;;;;;9.17;3.80;;;12.20;99.90;;;;;;4969232;28;20898;-54
2023/05/13 06:15:37;;;;;;;8.75;3.35;;;12.10;99.90;;;;;;4969765;28;20896;-53
2023/05/13 06:18:04;;;;;;;8.43;3.80;;;12.10;99.90;;;;;;4968644;28;20829;-55
2023/05/13 06:20:30;;;;;;;8.13;3.70;;;12.00;1.00;;;;;;4969128;28;20411;-54
2023/05/13 06:22:56;;;;;;;8.10;3.60;;;12.00;1.00;;;;;;4966322;28;20798;-54
2023/05/13 06:25:21;;;;;;;10.60;4.13;;;12.20;99.90;;;;;;4968907;28;20462;-54
2023/05/13 06:27:47;;;;;;;9.38;3.67;;;12.20;99.90;;;;;;4971636;28;20849;-54
2023/05/13 06:30:13;;;;;;;8.43;3.53;;;12.20;99.90;;;;;;4972675;28;20514;-54
2023/05/13 06:32:38;;;;;;;7.82;3.80;;;12.20;99.90;;;;;;4974059;28;20480;-54
2023/05/13 06:35:06;;;;;;;8.13;3.50;;;12.10;1.00;;;;;;4972849;28;20443;-55
2023/05/13 06:37:31;;;;;;;9.73;4.00;;;12.20;99.90;;;;;;4973360;28;20992;-54
2023/05/13 06:39:58;;;;;;;7.80;3.15;;;12.20;1.00;;;;;;4973784;28;20425;-54
2023/05/13 06:42:23;;;;;;;8.65;3.67;;;12.30;1.00;;;;;;4973197;28;20493;-54
2023/05/13 06:44:49;;;;;;;7.30;3.40;;;12.30;1.00;;;;;;4972340;28;20808;-55
2023/05/13 06:47:15;;;;;;;9.57;3.60;;;12.30;1.00;;;;;;4971824;28;20400;-55
2023/05/13 06:49:41;;;;;;;7.93;3.87;;;12.40;1.00;;;;;;4973763;28;20416;-55
2023/05/13 06:52:08;;;;;;;9.15;3.70;;;12.50;99.90;;;;;;4966023;28;20392;-55
2023/05/13 06:54:33;;;;;;;8.52;3.10;;;12.40;1.00;;;;;;4971065;28;20443;-55
2023/05/13 06:56:59;;;;;;;8.47;3.20;;;12.50;99.90;;;;;;4972590;28;20400;-55
2023/05/13 06:59:25;;;;;;;8.30;3.45;;;12.60;99.90;;;;;;4972217;28;20491;-55
2023/05/13 07:01:50;;;;;;;8.70;3.37;;;12.70;99.90;;;;;;4972203;28;20392;-55
2023/05/13 07:04:16;;;;;;;9.20;3.70;;;12.90;1.00;;;;;;4972361;28;20439;-55
2023/05/13 07:06:41;;;;;;;7.82;3.55;;;13.10;1.00;;;;;;4973091;28;20396;-54
2023/05/13 07:09:10;;;;;;;7.40;3.40;;;13.10;99.90;;;;;;4972248;28;20474;-55
2023/05/13 07:11:36;;;;;;;10.40;3.17;;;13.00;1.00;;;;;;4973212;28;20513;-54
2023/05/13 07:14:02;;;;;;;7.75;3.20;;;12.90;1.00;;;;;;4970189;28;20746;-55
2023/05/13 07:16:28;;;;;;;7.97;3.72;;;12.70;99.90;;;;;;4972208;28;20499;-55
2023/05/13 07:18:53;;;;;;;9.57;3.57;;;12.70;99.90;;;;;;4973411;28;20496;-55
2023/05/13 07:21:19;;;;;;;9.37;3.87;;;12.80;99.90;;;;;;4972400;28;20493;-54
2023/05/13 07:23:45;;;;;;;7.60;3.35;;;12.80;1.00;;;;;;4972788;28;20388;-55
2023/05/13 07:26:10;;;;;;;9.83;3.73;;;12.70;1.00;;;;;;4971939;28;20892;-55
2023/05/13 07:28:36;;;;;;;8.27;3.80;;;12.70;71.20;;;;;;4972529;28;20494;-55
2023/05/13 07:31:04;;;;;;;10.10;3.70;;;12.90;1.00;;;;;;4969237;28;20396;-54
2023/05/13 07:33:30;;;;;;;7.85;3.03;;;12.90;1.00;;;;;;4972814;28;20400;-56
2023/05/13 07:35:55;;;;;;;8.70;3.40;;;13.00;99.90;;;;;;4972569;28;20409;-56
2023/05/13 07:38:21;;;;;;;9.02;3.55;;;13.00;99.90;;;;;;4971609;28;20412;-56
2023/05/13 07:40:47;;;;;;;10.10;3.55;;;12.90;99.90;;;;;;4972370;28;20715;-54
2023/05/13 07:43:13;;;;;;;9.83;3.30;;;12.90;99.90;;;;;;4971470;28;20839;-54
2023/05/13 07:45:39;;;;;;;8.68;3.67;;;12.90;99.90;;;;;;4972662;28;20790;-54
2023/05/13 07:48:04;;;;;;;9.37;3.87;;;13.00;99.90;;;;;;4968371;28;20448;-56
2023/05/13 07:50:31;;;;;;;8.50;3.45;;;13.20;1.00;;;;;;4968513;28;20397;-56
2023/05/13 07:52:57;;;;;;;9.63;3.60;;;13.30;1.00;;;;;;4968979;28;20870;-56
2023/05/13 07:55:22;;;;;;;7.40;3.40;;;13.30;1.00;;;;;;4969652;28;20400;-55
2023/05/13 07:57:48;;;;;;;7.40;3.20;;;13.30;99.90;;;;;;4971005;28;20439;-56
2023/05/13 08:00:14;;;;;;;8.97;3.70;;;13.50;99.90;;;;;;4967437;28;20546;-56
2023/05/13 08:02:41;;;;;;;9.68;3.88;;;13.60;99.90;;;;;;4969888;28;20946;-55
2023/05/13 08:05:07;;;;;;;10.40;3.42;;;13.60;99.90;;;;;;4966964;28;20396;-56
2023/05/13 08:07:33;;;;;;;9.52;3.88;;;13.60;99.90;;;;;;4968941;28;20436;-55
2023/05/13 08:09:58;;;;;;;9.07;3.95;;;13.60;3.50;;;;;;4962080;28;20960;-55
2023/05/13 08:12:24;;;;;;;9.13;3.90;;;13.60;14.20;;;;;;4971593;28;20575;-56
2023/05/13 08:14:50;;;;;;;9.80;3.30;;;13.60;1.00;;;;;;4972248;28;20904;-55
2023/05/13 08:17:17;;;;;;;9.30;3.85;;;13.60;1.00;;;;;;4971556;28;20487;-56
2023/05/13 08:19:42;;;;;;;9.45;3.40;;;13.60;1.00;;;;;;4970670;28;20415;-56
2023/05/13 08:22:08;;;;;;;8.27;3.60;;;13.70;1.00;;;;;;4968775;28;20400;-56
2023/05/13 08:24:34;;;;;;;8.13;3.97;;;13.60;1.00;;;;;;4970981;28;20389;-55
2023/05/13 08:26:59;;;;;;;9.90;3.75;;;13.70;1.00;;;;;;4971471;28;20396;-53
2023/05/13 08:29:25;;;;;;;12.33;4.30;;;13.80;1.00;;;;;;4970290;28;20424;-54
2023/05/13 08:31:52;;;;;;;8.00;3.70;;;13.80;1.00;;;;;;4968879;28;20603;-54
2023/05/13 08:34:18;;;;;;;9.45;3.72;;;13.90;1.00;;;;;;4970320;28;20493;-55
2023/05/13 08:36:43;;;;;;;7.88;3.63;;;14.00;1.00;;;;;;4971705;28;20392;-55
2023/05/13 08:39:09;;;;;;;9.20;3.67;;;14.10;1.00;;;;;;4971269;28;20388;-55
2023/05/13 08:41:36;;;;;;;8.73;3.50;;;14.30;1.00;;;;;;4971834;28;20428;-55
2023/05/13 08:44:04;;;;;;;8.83;3.50;;;14.40;99.90;;;;;;4971586;28;20477;-55
2023/05/13 08:46:32;;;;;;;9.85;3.70;;;14.40;99.90;;;;;;4971646;28;20393;-54
2023/05/13 08:48:58;;;;;;;8.07;3.33;;;14.50;99.90;;;;;;4971870;28;20552;-54
2023/05/13 08:51:24;;;;;;;10.35;3.72;;;14.50;99.90;;;;;;4970911;28;20389;-54
2023/05/13 08:53:51;;;;;;;9.18;3.47;;;14.70;99.90;;;;;;4971444;28;20488;-55
2023/05/13 08:56:17;;;;;;;7.60;3.70;;;14.50;99.90;;;;;;4970585;28;20510;-55
2023/05/13 08:58:43;;;;;;;7.72;3.40;;;14.80;99.90;;;;;;4971645;28;20900;-55
2023/05/13 09:01:08;;;;;;;7.53;3.10;;;14.70;99.90;;;;;;4970560;28;20392;-55
2023/05/13 09:03:39;;;;;;;8.00;3.60;;;14.60;99.90;;;;;;4971223;28;20407;-55
2023/05/13 09:06:04;;;;;;;8.07;3.40;;;14.50;99.90;;;;;;4970786;28;20470;-55
2023/05/13 09:08:31;;;;;;;7.63;3.58;;;14.60;99.90;;;;;;4971308;28;20831;-55
2023/05/13 09:10:57;;;;;;;11.60;3.65;;;14.50;99.90;;;;;;4971572;28;20404;-55
2023/05/13 09:13:22;;;;;;;9.80;3.93;;;14.60;99.90;;;;;;4970821;28;20711;-55
2023/05/13 09:15:50;;;;;;;7.55;3.15;;;14.70;99.90;;;;;;4971065;28;20858;-55
2023/05/13 09:18:16;;;;;;;8.27;3.42;;;14.70;99.90;;;;;;4970440;28;20408;-55
2023/05/13 09:20:42;;;;;;;7.80;3.90;;;14.90;99.90;;;;;;4971051;28;20451;-55
2023/05/13 09:23:10;;;;;;;9.73;3.67;;;15.00;99.90;;;;;;4970516;28;20416;-55
2023/05/13 09:25:38;;;;;;;8.48;3.80;;;14.90;99.90;;;;;;4970930;28;20384;-55
2023/05/13 09:28:06;;;;;;;8.63;3.80;;;14.90;99.90;;;;;;4970781;28;20400;-56
2023/05/13 09:30:44;;;;;;;9.10;3.60;;;14.80;99.90;;;;;;4970542;28;20428;-55
2023/05/13 09:33:14;;;;;;;8.20;3.10;;;14.80;99.90;;;;;;4970006;28;20429;-55
2023/05/13 09:35:51;;;;;;;8.10;3.92;;;14.90;99.90;;;;;;4968945;28;20399;-55
2023/05/13 09:38:37;;;;;;;8.68;3.60;;;15.00;99.90;;;;;;4951025;28;20386;-55
2023/05/13 09:41:04;;;;;;;8.45;3.33;;;14.90;99.90;;;;;;4968124;28;20407;-55
2023/05/13 09:43:33;;;;;;;8.05;3.47;;;14.80;99.90;;;;;;4969927;28;20811;-55
2023/05/13 09:46:03;;;;;;;8.10;3.50;;;14.80;99.90;;;;;;4970196;28;20423;-55
2023/05/13 09:48:31;;;;;;;7.90;3.50;;;14.80;99.90;;;;;;4967784;28;20420;-55
2023/05/13 09:50:58;;;;;;;8.73;3.95;;;15.00;99.90;;;;;;4970028;28;20399;-55
2023/05/13 09:53:25;;;;;;;7.70;3.27;;;14.90;99.90;;;;;;4969346;28;20408;-55
2023/05/13 09:55:52;;;;;;;7.72;3.53;;;14.80;99.90;;;;;;4970137;28;20411;-55
2023/05/13 09:58:19;;;;;;;9.25;3.47;;;15.00;99.90;;;;;;4969513;28;20483;-55
2023/05/13 10:00:46;;;;;;;7.70;3.20;;;15.00;99.90;;;;;;4970213;28;20423;-55
2023/05/13 10:03:12;;;;;;;7.40;3.35;;;15.10;99.90;;;;;;4970287;28;20400;-55
2023/05/13 10:05:39;;;;;;;6.90;3.03;;;15.30;93.00;;;;;;4974091;28;20404;-55
2023/05/13 10:08:08;;;;;;;7.32;3.20;;;15.10;92.30;;;;;;4973803;28;20834;-55
2023/05/13 10:10:34;;;;;;;7.43;3.47;;;15.00;97.20;;;;;;4957303;28;20447;-55
2023/05/13 10:13:07;;;;;;;9.75;3.63;;;14.90;99.90;;;;;;4972957;28;20412;-55
2023/05/13 10:15:33;;;;;;;8.97;3.60;;;14.90;99.90;;;;;;4973963;28;20399;-55
2023/05/13 10:18:00;;;;;;;9.38;4.30;;;14.90;99.90;;;;;;4974081;28;20392;-55
2023/05/13 10:20:26;;;;;;;8.05;3.53;;;14.90;99.90;;;;;;4972677;28;20407;-55
2023/05/13 10:22:52;;;;;;;8.10;3.63;;;15.00;96.60;;;;;;4973952;28;20380;-55
2023/05/13 10:25:18;;;;;;;7.43;3.30;;;15.00;89.20;;;;;;4973379;28;20376;-55
2023/05/13 10:27:44;;;;;;;9.48;4.00;;;14.90;99.90;;;;;;4973674;28;20916;-55
2023/05/13 10:30:10;;;;;;;8.48;3.50;;;15.00;99.90;;;;;;4973012;28;20439;-55
2023/05/13 10:32:40;;;;;;;8.70;3.50;;;15.00;99.90;;;;;;4974449;28;20392;-55
2023/05/13 10:35:15;;;;;;;10.57;3.83;;;15.20;99.90;;;;;;4973216;28;20479;-55
2023/05/13 10:38:06;;;;;;;8.77;3.72;;;15.50;99.90;;;;;;4973839;28;20391;-55
2023/05/13 10:40:55;;;;;;;9.40;4.13;;;15.70;99.90;;;;;;4973637;28;20764;-55
2023/05/13 10:43:24;;;;;;;8.07;3.65;;;15.40;99.90;;;;;;4973223;28;20400;-55
2023/05/13 10:46:05;;;;;;;9.10;3.73;;;15.40;99.90;;;;;;4973608;28;20398;-55
2023/05/13 10:48:48;;;;;;;8.52;3.58;;;15.50;99.90;;;;;;4973518;28;20404;-53
2023/05/13 10:51:15;;;;;;;8.20;3.60;;;15.50;98.80;;;;;;4973388;28;20483;-53
2023/05/13 10:53:51;;;;;;;8.00;3.30;;;15.50;79.20;;;;;;4973373;28;20396;-53
2023/05/13 10:56:23;;;;;;;8.70;3.80;;;15.60;86.30;;;;;;4972686;28;20416;-55
2023/05/13 10:59:02;;;;;;;7.60;3.40;;;15.80;70.60;;;;;;4973376;28;20401;-53
2023/05/13 11:01:42;;;;;;;7.88;3.70;;;15.70;58.30;;;;;;4972667;28;20392;-53
2023/05/13 11:04:13;;;;;;;7.10;3.43;;;15.80;57.90;;;;;;4972574;28;20388;-53
2023/05/13 11:06:43;;;;;;;8.52;3.60;;;16.20;35.80;;;;;;4973651;28;20747;-53
2023/05/13 11:09:18;;;;;;;9.32;3.63;;;16.50;22.10;;;;;;4972458;28;20412;-54
2023/05/13 11:11:51;;;;;;;8.55;3.63;;;16.60;1.00;;;;;;4972967;28;20392;-53
2023/05/13 11:14:19;;;;;;;7.88;3.97;;;16.60;1.00;;;;;;4972308;28;20392;-53
2023/05/13 11:16:53;;;;;;;8.93;4.03;;;16.70;1.00;;;;;;4973615;28;20396;-53
2023/05/13 11:19:29;;;;;;;8.15;3.80;;;16.60;1.00;;;;;;4972420;28;20431;-53
2023/05/13 11:22:09;;;;;;;9.50;3.90;;;16.50;1.00;;;;;;4973490;28;20388;-53
2023/05/13 11:24:35;;;;;;;8.18;3.42;;;16.60;1.00;;;;;;4972863;28;20743;-53
2023/05/13 11:27:16;;;;;;;8.10;3.30;;;16.20;1.00;;;;;;4972884;28;20400;-53
2023/05/13 11:29:53;;;;;;;7.75;3.38;;;16.10;1.00;;;;;;4972733;28;20443;-53
2023/05/13 11:32:44;;;;;;;7.72;3.40;;;16.10;1.00;;;;;;4986648;28;20883;-53
2023/05/13 11:35:10;;;;;;;8.60;3.47;;;16.40;1.00;;;;;;4971734;28;20471;-54
2023/05/13 11:37:42;;;;;;;8.17;3.00;;;16.20;1.00;;;;;;4973231;28;20471;-54
2023/05/13 11:40:09;;;;;;;7.15;2.85;;;16.20;1.00;;;;;;4972507;28;20399;-54
2023/05/13 11:42:37;;;;;;;8.02;3.00;;;16.10;1.00;;;;;;4972897;28;20408;-54
2023/05/13 11:45:04;;;;;;;9.05;3.30;;;16.20;1.00;;;;;;4955311;28;20400;-54
2023/05/13 11:47:29;;;;;;;8.00;3.15;;;16.20;1.00;;;;;;4971860;28;20392;-54
2023/05/13 11:49:56;;;;;;;7.10;2.90;;;16.20;1.00;;;;;;4972280;28;20427;-54
2023/05/13 11:52:21;;;;;;;7.10;3.00;;;16.30;1.00;;;;;;4972150;28;20555;-54
2023/05/13 11:54:53;;;;;;;7.82;3.30;;;16.40;1.00;;;;;;4972773;28;20531;-54
2023/05/13 11:57:20;;;;;;;7.72;3.03;;;16.40;1.00;;;;;;4972035;28;20396;-54
2023/05/13 12:00:05;;;;;;;8.30;3.42;;;16.50;1.00;;;;;;4972564;28;20396;-54
2023/05/13 12:02:39;;;;;;;9.52;2.95;;;16.70;1.00;;;;;;4972575;28;20850;-54
2023/05/13 12:05:09;;;;;;;7.50;2.70;;;16.80;1.00;;;;;;4972224;28;20416;-54
2023/05/13 12:07:36;;;;;;;9.20;3.58;;;16.70;1.00;;;;;;4971858;28;20487;-54
2023/05/13 12:10:04;;;;;;;7.90;3.00;;;17.00;1.00;;;;;;4972032;28;20423;-54
2023/05/13 12:12:33;;;;;;;7.63;3.30;;;17.00;1.00;;;;;;4971296;28;20392;-54
2023/05/13 12:15:00;;;;;;;7.50;3.30;;;16.80;1.00;;;;;;4953844;28;20489;-54
2023/05/13 12:17:26;;;;;;;6.60;2.80;;;17.00;1.00;;;;;;4952494;29;20437;-54
2023/05/13 12:20:11;;;;;;;7.88;3.20;;;17.20;1.00;;;;;;4952861;29;20394;-54
2023/05/13 12:22:48;;;;;;;7.70;2.80;;;17.60;1.00;;;;;;4952659;29;20430;-55
2023/05/13 12:25:31;;;;;;;8.30;2.90;;;17.70;1.00;;;;;;4951247;28;20386;-55
2023/05/13 12:28:16;;;;;;;7.25;2.80;;;17.90;1.00;;;;;;4952880;29;20402;-55
2023/05/13 12:30:50;;;;;;;7.32;3.03;;;17.80;1.00;;;;;;4952625;29;20425;-54
2023/05/13 12:33:18;;;;;;;6.90;2.70;;;17.90;1.00;;;;;;4951882;29;20396;-55
2023/05/13 12:35:47;;;;;;;6.93;2.50;;;18.00;1.00;;;;;;4952054;29;20382;-55
2023/05/13 12:38:21;;;;;;;7.35;2.90;;;18.00;1.00;;;;;;4951744;29;20398;-55
2023/05/13 12:40:47;;;;;;;7.20;2.87;;;18.50;1.00;;;;;;4952511;29;20886;-54
2023/05/13 12:43:15;;;;;;;8.80;3.27;;;18.50;1.00;;;;;;4951726;29;20433;-55
2023/05/13 12:45:42;;;;;;;18.00;9.35;;;18.40;1.00;;;;;;4952274;29;20478;-55
2023/05/13 12:48:08;;;;;;;7.15;3.25;;;18.70;1.00;;;;;;4951658;29;20752;-55
2023/05/13 12:50:33;;;;;;;9.27;4.78;;;18.50;1.00;;;;;;4952382;29;20394;-55
2023/05/13 12:52:59;;;;;;;6.90;2.75;;;18.50;1.00;;;;;;4952036;29;20389;-55
2023/05/13 12:55:26;;;;;;;7.33;3.10;;;18.40;1.00;;;;;;4951480;29;20402;-55